createdAt,value
2019-04-22T00:01:57.006Z,76450.11
2019-04-22T00:04:41.449Z,76448.79
2019-04-22T00:07:22.735Z,76444.06
2019-04-22T00:09:58.344Z,76436.56
2019-04-22T00:12:27.932Z,76433.97
2019-04-22T00:14:54.327Z,76431.58
2019-04-22T00:17:30.105Z,76429.80
2019-04-22T00:22:27.760Z,76414.83
2019-04-22T00:25:02.983Z,76415.25
2019-04-22T00:27:37.288Z,76412.22
2019-04-22T00:30:07.700Z,76409.17
2019-04-22T00:32:50.002Z,76404.27
2019-04-22T00:35:19.812Z,76402.02
2019-04-22T00:37:59.686Z,76401.22
2019-04-22T00:40:30.600Z,76399.97
2019-04-22T00:42:53.801Z,76399.19
2019-04-22T00:45:31.190Z,76401.02
2019-04-22T00:48:01.000Z,76396.05
2019-04-22T00:53:04.572Z,76384.12
2019-04-22T00:55:31.250Z,76382.44
2019-04-22T00:58:13.953Z,76384.08
2019-04-22T01:00:39.277Z,76383.76
2019-04-22T01:03:10.973Z,76378.10
2019-04-22T01:05:43.699Z,76382.70
2019-04-22T01:08:15.385Z,76384.47
2019-04-22T01:10:45.191Z,76376.06
2019-04-22T01:13:16.680Z,76370.64
2019-04-22T01:16:04.568Z,76361.00
2019-04-22T01:18:15.768Z,76351.38
2019-04-22T01:23:19.270Z,76335.05
2019-04-22T01:25:46.128Z,76332.47
2019-04-22T01:28:15.302Z,76342.42
2019-04-22T01:30:40.663Z,76347.89
2019-04-22T01:33:12.769Z,76339.41
2019-04-22T01:35:53.886Z,76333.47
2019-04-22T01:38:26.518Z,76331.95
2019-04-22T01:41:07.121Z,76332.11
2019-04-22T01:43:46.115Z,76329.10
2019-04-22T01:46:08.514Z,76317.19
2019-04-22T01:48:39.565Z,76306.36
2019-04-22T01:51:01.681Z,76305.00
2019-04-22T01:53:47.368Z,76305.06
2019-04-22T01:56:13.754Z,76300.67
2019-04-22T01:58:33.214Z,76296.05
2019-04-22T02:01:13.545Z,76294.20
2019-04-22T02:03:52.758Z,76286.31
2019-04-22T02:06:17.286Z,76281.31
2019-04-22T02:11:30.275Z,76266.09
2019-04-22T02:13:49.545Z,76261.61
2019-04-22T02:16:21.192Z,76262.58
2019-04-22T02:18:52.414Z,76257.16
2019-04-22T02:21:23.434Z,76258.38
2019-04-22T02:26:25.563Z,76259.70
2019-04-22T02:29:15.058Z,76261.52
2019-04-22T02:31:40.545Z,76254.98
2019-04-22T02:36:35.923Z,76250.75
2019-04-22T02:41:30.924Z,76231.80
2019-04-22T02:46:54.698Z,76225.78
2019-04-22T03:01:41.210Z,76209.25
2019-04-22T03:04:20.549Z,76211.09
2019-04-22T03:06:38.399Z,76203.80
2019-04-22T03:09:18.503Z,76204.60
2019-04-22T03:12:02.951Z,76210.39
2019-04-22T03:14:22.755Z,76204.80
2019-04-22T03:16:54.835Z,76208.70
2019-04-22T03:21:57.909Z,76193.78
2019-04-22T03:24:27.835Z,76190.98
2019-04-22T03:26:59.245Z,76186.27
2019-04-22T03:33:05.881Z,76175.20
2019-04-22T03:42:56.313Z,76162.86
2019-04-22T03:45:28.435Z,76161.73
2019-04-22T03:47:54.145Z,76153.98
2019-04-22T04:00:42.927Z,76147.77
2019-04-22T04:05:49.661Z,76129.52
2019-04-22T04:13:03.326Z,76132.42
2019-04-22T04:16:03.112Z,76134.33
2019-04-22T04:18:03.327Z,76131.17
2019-04-22T04:25:42.723Z,76127.68
2019-04-22T04:28:31.356Z,76135.27
2019-04-22T04:33:21.164Z,76141.27
2019-04-22T04:38:11.590Z,76155.24
2019-04-22T04:40:39.959Z,76156.05
2019-04-22T04:43:18.822Z,76159.95
2019-04-22T04:48:20.997Z,76164.13
2019-04-22T04:51:01.616Z,76168.95
2019-04-22T04:55:53.169Z,76185.27
2019-04-22T04:58:36.754Z,76190.40
2019-04-22T05:01:00.610Z,76186.55
2019-04-22T05:03:32.816Z,76187.91
2019-04-22T05:05:58.984Z,76189.88
2019-04-22T05:08:40.572Z,76190.59
2019-04-22T05:11:16.186Z,76195.18
2019-04-22T05:13:33.412Z,76200.08
2019-04-22T05:16:17.454Z,76206.70
2019-04-22T05:21:09.561Z,76208.41
2019-04-22T05:23:40.511Z,76214.07
2019-04-22T05:26:04.312Z,76219.37
2019-04-22T05:28:33.523Z,76229.92
2019-04-22T05:31:05.152Z,76233.90
2019-04-22T05:33:35.021Z,76250.63
2019-04-22T05:36:07.427Z,76266.02
2019-04-22T05:38:42.824Z,76279.53
2019-04-22T05:41:14.341Z,76292.75
2019-04-22T05:43:42.340Z,76292.66
2019-04-22T05:46:09.151Z,76303.02
2019-04-22T05:51:09.780Z,76321.83
2019-04-22T05:53:42.818Z,76330.39
2019-04-22T05:56:22.069Z,76337.96
2019-04-22T06:03:56.492Z,76384.64
2019-04-22T06:06:18.223Z,76393.21
2019-04-22T06:08:51.287Z,76393.34
2019-04-22T06:11:25.655Z,76394.39
2019-04-22T06:13:50.221Z,76403.03
2019-04-22T06:16:29.177Z,76410.92
2019-04-22T06:18:58.276Z,76414.33
2019-04-22T06:21:31.108Z,76417.52
2019-04-22T06:24:06.365Z,76422.18
2019-04-22T06:26:37.925Z,76425.41
2019-04-22T06:29:01.345Z,76442.29
2019-04-22T06:31:54.459Z,76440.03
2019-04-22T06:34:06.206Z,76450.73
2019-04-22T06:36:37.465Z,76461.89
2019-04-22T06:39:10.549Z,76465.39
2019-04-22T06:41:33.374Z,76474.95
2019-04-22T06:44:16.190Z,76491.20
2019-04-22T06:46:39.939Z,76497.95
2019-04-22T06:49:11.285Z,76504.63
2019-04-22T06:51:40.589Z,76515.14
2019-04-22T06:54:14.693Z,76520.09
2019-04-22T06:56:42.752Z,76530.61
2019-04-22T06:59:16.865Z,76538.63
2019-04-22T07:01:52.420Z,76548.84
2019-04-22T07:04:11.656Z,76558.99
2019-04-22T07:06:48.327Z,76570.69
2019-04-22T07:09:31.533Z,76582.07
2019-04-22T07:11:50.750Z,76592.19
2019-04-22T07:14:18.110Z,76601.78
2019-04-22T07:16:54.541Z,76615.45
2019-04-22T07:21:57.597Z,76639.16
2019-04-22T07:24:40.426Z,76650.41
2019-04-22T07:27:01.924Z,76662.27
2019-04-22T07:29:29.766Z,76678.16
2019-04-22T07:32:01.556Z,76695.75
2019-04-22T07:34:33.131Z,76707.02
2019-04-22T07:37:09.261Z,76721.81
2019-04-22T07:39:37.958Z,76735.80
2019-04-22T07:42:10.777Z,76751.35
2019-04-22T07:44:38.495Z,76766.20
2019-04-22T07:47:15.254Z,76780.27
2019-04-22T07:52:12.433Z,76800.88
2019-04-22T07:54:43.133Z,76815.20
2019-04-22T07:59:43.640Z,76838.09
2019-04-22T08:02:16.298Z,76850.34
2019-04-22T08:05:05.670Z,76865.34
2019-04-22T08:07:18.177Z,76875.89
2019-04-22T08:09:51.090Z,76885.70
2019-04-22T08:12:20.299Z,76899.86
2019-04-22T08:17:45.149Z,76927.36
2019-04-22T08:19:57.780Z,76925.38
2019-04-22T08:22:24.092Z,76906.63
2019-04-22T08:24:57.914Z,76913.89
2019-04-22T08:27:25.322Z,76934.02
2019-04-22T08:32:38.027Z,76970.03
2019-04-22T08:35:04.915Z,76984.89
2019-04-22T08:40:09.650Z,77019.16
2019-04-22T08:42:48.224Z,77043.42
2019-04-22T08:45:12.030Z,77070.14
2019-04-22T08:47:36.601Z,77082.91
2019-04-22T08:50:10.924Z,77091.26
2019-04-22T08:52:41.822Z,77100.25
2019-04-22T08:55:12.945Z,77123.02
2019-04-22T08:58:03.529Z,77134.98
2019-04-22T09:00:13.000Z,77150.52
2019-04-22T09:02:51.230Z,77174.25
2019-04-22T09:05:33.536Z,77191.91
2019-04-22T09:07:46.961Z,77206.34
2019-04-22T09:10:19.924Z,77204.62
2019-04-22T09:12:56.743Z,77207.15
2019-04-22T09:15:24.727Z,77244.98
2019-04-22T09:17:55.843Z,77271.13
2019-04-22T09:20:21.723Z,77311.36
2019-04-22T09:23:00.247Z,77334.03
2019-04-22T09:25:24.011Z,77354.05
2019-04-22T09:27:56.027Z,77376.56
2019-04-22T09:30:30.633Z,77411.58
2019-04-22T09:33:06.246Z,77456.09
2019-04-22T09:35:31.881Z,77512.67
2019-04-22T09:38:13.770Z,77544.58
2019-04-22T09:40:34.608Z,77580.89
2019-04-22T09:43:02.907Z,77624.70
2019-04-22T09:45:34.381Z,77646.01
2019-04-22T09:48:09.011Z,77650.98
2019-04-22T09:50:43.146Z,77657.92
2019-04-22T09:53:08.067Z,77650.94
2019-04-22T09:55:34.574Z,77647.13
2019-04-22T09:58:09.654Z,77698.17
2019-04-22T10:00:52.760Z,77750.11
2019-04-22T10:03:20.507Z,77781.30
2019-04-22T10:06:02.511Z,77811.63
2019-04-22T10:08:31.660Z,77840.42
2019-04-22T10:10:56.579Z,77877.20
2019-04-22T10:13:25.587Z,77897.72
2019-04-22T10:15:57.298Z,77932.15
2019-04-22T10:18:28.912Z,77909.73
2019-04-22T10:21:00.726Z,77936.94
2019-04-22T10:23:34.526Z,78006.45
2019-04-22T10:26:00.795Z,78007.61
2019-04-22T10:31:01.176Z,78005.45
2019-04-22T10:33:26.875Z,78051.63
2019-04-22T10:35:39.451Z,78084.09
2019-04-22T10:38:10.325Z,78059.91
2019-04-22T10:40:40.737Z,78094.52
2019-04-22T10:43:11.531Z,78125.58
2019-04-22T10:45:41.985Z,78123.49
2019-04-22T10:48:12.332Z,78189.33
2019-04-22T10:50:46.861Z,78237.16
2019-04-22T10:53:17.924Z,78282.81
2019-04-22T10:55:49.861Z,78334.20
2019-04-22T10:58:20.537Z,78382.88
2019-04-22T11:00:52.087Z,78434.41
2019-04-22T11:03:22.478Z,78438.25
2019-04-22T11:05:53.920Z,78428.86
2019-04-22T11:08:32.583Z,78374.63
2019-04-22T11:11:12.490Z,78352.26
2019-04-22T11:13:26.137Z,78398.58
2019-04-22T11:15:55.846Z,78482.71
2019-04-22T11:18:25.421Z,78529.80
2019-04-22T11:20:55.781Z,78544.49
2019-04-22T11:23:27.014Z,78512.94
2019-04-22T11:25:57.611Z,78537.57
2019-04-22T11:28:27.820Z,78593.75
2019-04-22T11:30:58.700Z,78662.23
2019-04-22T11:33:28.342Z,78675.72
2019-04-22T11:35:57.743Z,78630.64
2019-04-22T11:38:28.506Z,78563.58
2019-04-22T11:41:00.023Z,78549.34
2019-04-22T11:43:30.464Z,78542.82
2019-04-22T11:46:00.186Z,78575.98
2019-04-22T11:48:31.045Z,78636.60
2019-04-22T11:51:02.017Z,78684.61
2019-04-22T11:53:31.508Z,78734.23
2019-04-22T11:56:00.914Z,78721.98
2019-04-22T11:58:30.794Z,78754.92
2019-04-22T12:01:01.071Z,78746.85
2019-04-22T12:03:31.663Z,78752.88
2019-04-22T12:06:02.070Z,78792.72
2019-04-22T12:08:31.583Z,78776.63
2019-04-22T12:11:05.498Z,78812.77
2019-04-22T12:13:33.783Z,78866.09
2019-04-22T12:16:03.449Z,78849.20
2019-04-22T12:18:33.313Z,78854.14
2019-04-22T12:21:03.550Z,78896.50
2019-04-22T12:23:34.849Z,78908.91
2019-04-22T12:26:09.870Z,78959.84
2019-04-22T12:28:36.804Z,78963.69
2019-04-22T12:31:06.672Z,79054.91
2019-04-22T12:33:37.119Z,79221.67
2019-04-22T12:36:08.670Z,79392.18
2019-04-22T12:38:39.761Z,79478.34
2019-04-22T12:41:11.974Z,79594.90
2019-04-22T12:43:41.019Z,79654.31
2019-04-22T12:46:12.079Z,79758.94
2019-04-22T12:48:41.529Z,79855.84
2019-04-22T12:51:11.098Z,79943.92
2019-04-22T12:53:42.114Z,79931.06
2019-04-22T12:56:12.658Z,79961.02
2019-04-22T12:58:43.373Z,80034.37
2019-04-22T13:01:13.158Z,80146.03
2019-04-22T13:03:42.656Z,80176.00
2019-04-22T13:06:12.267Z,80240.94
2019-04-22T13:08:41.677Z,80293.41
2019-04-22T13:11:14.494Z,80266.83
2019-04-22T13:13:42.987Z,80319.55
2019-04-22T13:16:13.397Z,80279.21
2019-04-22T13:18:50.186Z,80226.48
2019-04-22T13:21:15.054Z,80152.80
2019-04-22T13:23:44.648Z,80108.89
2019-04-22T13:26:15.131Z,80138.75
2019-04-22T13:28:45.117Z,80223.25
2019-04-22T13:31:16.070Z,80250.36
2019-04-22T13:33:46.697Z,80323.38
2019-04-22T13:36:19.192Z,80335.08
2019-04-22T13:38:49.225Z,80373.94
2019-04-22T13:41:28.915Z,80325.31
2019-04-22T13:43:51.005Z,80294.20
2019-04-22T13:46:21.949Z,80191.05
2019-04-22T13:49:17.201Z,80137.36
2019-04-22T13:51:52.597Z,80015.61
2019-04-22T13:56:46.319Z,80016.02
2019-04-22T13:59:07.278Z,80093.03
2019-04-22T14:01:38.632Z,80148.00
2019-04-22T14:04:12.599Z,80108.55
2019-04-22T14:06:42.864Z,80162.55
2019-04-22T14:09:13.698Z,80156.25
2019-04-22T14:11:50.858Z,80152.09
2019-04-22T14:14:15.640Z,80188.38
2019-04-22T14:16:45.278Z,80197.17
2019-04-22T14:19:16.052Z,80181.56
2019-04-22T14:21:47.463Z,80155.95
2019-04-22T14:24:17.876Z,80169.89
2019-04-22T14:26:58.837Z,80128.36
2019-04-22T14:29:19.709Z,80141.59
2019-04-22T14:32:01.122Z,80063.34
2019-04-22T14:34:20.808Z,79961.51
2019-04-22T14:36:51.110Z,79835.64
2019-04-22T14:39:21.902Z,79544.55
2019-04-22T14:44:12.633Z,79227.97
2019-04-22T14:45:15.190Z,79034.57
2019-04-22T14:47:21.172Z,78816.60
2019-04-22T14:49:50.427Z,78659.20
2019-04-22T14:52:24.764Z,78559.91
2019-04-22T14:54:44.642Z,78441.97
2019-04-22T14:56:59.028Z,78408.77
2019-04-22T14:59:29.213Z,78453.03
2019-04-22T15:01:58.974Z,78527.80
2019-04-22T15:04:29.023Z,78555.06
2019-04-22T15:06:59.055Z,78599.14
2019-04-22T15:09:30.076Z,78611.15
2019-04-22T15:12:14.477Z,78600.47
2019-04-22T15:14:31.047Z,78614.13
2019-04-22T15:17:02.637Z,78670.77
2019-04-22T15:19:38.020Z,78694.40
2019-04-22T15:22:08.490Z,78734.91
2019-04-22T15:24:38.765Z,78729.79
2019-04-22T15:27:08.807Z,78755.38
2019-04-22T15:29:39.073Z,78769.64
2019-04-22T15:32:09.383Z,78749.58
2019-04-22T15:34:39.513Z,78710.70
2019-04-22T15:37:09.209Z,78713.16
2019-04-22T15:39:39.541Z,78718.97
2019-04-22T15:42:14.584Z,78697.58
2019-04-22T15:44:40.262Z,78640.53
2019-04-22T15:47:11.014Z,78629.83
2019-04-22T15:49:42.146Z,78620.59
2019-04-22T15:52:12.561Z,78620.98
2019-04-22T15:54:43.599Z,78620.03
2019-04-22T15:57:14.800Z,78621.09
2019-04-22T15:59:57.488Z,78599.05
2019-04-22T16:02:16.034Z,78602.30
2019-04-22T16:04:46.544Z,78548.55
2019-04-22T16:07:17.102Z,78512.14
2019-04-22T16:09:47.858Z,78514.02
2019-04-22T16:12:26.162Z,78522.80
2019-04-22T16:14:53.491Z,78518.34
2019-04-22T16:17:19.770Z,78462.75
2019-04-22T16:19:49.236Z,78437.96
2019-04-22T16:22:21.809Z,78432.33
2019-04-22T16:24:56.248Z,78434.33
2019-04-22T16:27:27.455Z,78430.38
2019-04-22T16:29:57.234Z,78427.08
2019-04-22T16:32:27.793Z,78408.25
2019-04-22T16:34:58.725Z,78376.26
2019-04-22T16:37:28.597Z,78320.56
2019-04-22T16:39:58.923Z,78245.45
2019-04-22T16:42:37.897Z,78173.05
2019-04-22T16:44:59.755Z,78111.61
2019-04-22T16:47:29.244Z,78048.77
2019-04-22T16:49:59.617Z,78012.51
2019-04-22T16:52:30.296Z,77952.61
2019-04-22T16:55:00.985Z,77914.42
2019-04-22T16:57:30.619Z,77882.11
2019-04-22T17:00:00.450Z,77874.33
2019-04-22T17:02:43.402Z,77860.77
2019-04-22T17:05:15.936Z,77826.20
2019-04-22T17:07:45.736Z,77770.22
2019-04-22T17:10:15.613Z,77755.50
2019-04-22T17:12:53.916Z,77752.34
2019-04-22T17:15:18.496Z,77768.13
2019-04-22T17:17:49.370Z,77752.09
2019-04-22T17:20:18.878Z,77736.84
2019-04-22T17:22:49.404Z,77716.46
2019-04-22T17:25:20.370Z,77692.94
2019-04-22T17:27:49.954Z,77677.84
2019-04-22T17:30:20.181Z,77652.75
2019-04-22T17:32:50.399Z,77649.99
2019-04-22T17:35:20.055Z,77646.81
2019-04-22T17:38:00.301Z,77635.62
2019-04-22T17:40:42.208Z,77621.41
2019-04-22T17:43:40.529Z,77600.69
2019-04-22T17:46:04.479Z,77581.55
2019-04-22T17:48:53.364Z,77572.91
2019-04-22T17:51:34.402Z,77560.30
2019-04-22T17:54:02.409Z,77555.28
2019-04-22T17:56:33.713Z,77545.16
2019-04-22T17:59:04.020Z,77531.09
2019-04-22T18:01:29.675Z,77516.37
2019-04-22T18:03:49.814Z,77514.28
2019-04-22T18:06:42.873Z,77509.38
2019-04-22T18:09:01.508Z,77489.13
2019-04-22T18:14:26.077Z,77466.14
2019-04-22T18:16:43.006Z,77455.33
2019-04-22T18:19:11.856Z,77443.11
2019-04-22T18:21:35.030Z,77435.17
2019-04-22T18:24:04.660Z,77426.92
2019-04-22T18:26:44.954Z,77424.45
2019-04-22T18:29:20.992Z,77416.88
2019-04-22T18:31:40.977Z,77414.02
2019-04-22T18:34:10.156Z,77403.41
2019-04-22T18:36:45.813Z,77397.61
2019-04-22T18:39:31.158Z,77394.20
2019-04-22T18:41:51.974Z,77375.37
2019-04-22T18:44:29.061Z,77370.11
2019-04-22T18:46:52.305Z,77339.95
2019-04-22T18:49:30.775Z,77336.00
2019-04-22T18:52:05.855Z,77319.48
2019-04-22T18:54:36.779Z,77304.29
2019-04-22T18:57:10.050Z,77291.78
2019-04-22T18:59:27.817Z,77283.78
2019-04-22T19:01:58.627Z,77271.63
2019-04-22T19:04:31.726Z,77255.45
2019-04-22T19:07:23.986Z,77243.69
2019-04-22T19:09:59.446Z,77241.69
2019-04-22T19:20:05.390Z,77215.54
2019-04-22T19:22:29.885Z,77209.34
2019-04-22T19:24:54.971Z,77184.56
2019-04-22T19:27:39.534Z,77174.83
2019-04-22T19:30:18.990Z,77174.31
2019-04-22T19:32:46.480Z,77168.72
2019-04-22T19:35:11.692Z,77155.05
2019-04-22T19:37:42.479Z,77140.26
2019-04-22T19:40:24.316Z,77131.51
2019-04-22T19:42:52.642Z,77131.84
2019-04-22T19:45:16.027Z,77128.39
2019-04-22T19:47:56.575Z,77120.78
2019-04-22T19:50:24.593Z,77115.46
2019-04-22T19:52:59.491Z,77112.38
2019-04-22T19:55:29.446Z,77100.75
2019-04-22T19:57:54.610Z,77093.28
2019-04-22T20:00:37.381Z,77087.82
2019-04-22T20:03:29.398Z,77097.85
2019-04-22T20:05:52.563Z,77093.83
2019-04-22T20:08:26.377Z,77092.38
2019-04-22T20:10:59.173Z,77089.78
2019-04-22T20:13:33.559Z,77076.82
2019-04-22T20:15:50.817Z,77065.48
2019-04-22T20:18:35.653Z,77054.83
2019-04-22T20:21:08.654Z,77050.74
2019-04-22T20:23:25.672Z,77042.50
2019-04-22T20:25:56.087Z,77029.96
2019-04-22T20:28:37.813Z,77029.73
2019-04-22T20:31:08.467Z,77019.13
2019-04-22T20:33:45.569Z,77011.16
2019-04-22T20:36:12.592Z,77010.77
2019-04-22T20:38:42.490Z,77007.56
2019-04-22T20:41:08.351Z,76999.44
2019-04-22T20:43:50.004Z,76988.61
2019-04-22T20:46:15.127Z,76990.85
2019-04-22T20:48:50.207Z,77001.44
2019-04-22T20:51:28.123Z,76986.63
2019-04-22T20:53:49.087Z,76966.86
2019-04-22T20:56:18.882Z,76952.97
2019-04-22T20:58:51.732Z,76958.19
2019-04-22T21:01:21.092Z,76949.77
2019-04-22T21:03:43.987Z,76947.30
2019-04-22T21:06:22.869Z,76927.44
2019-04-22T21:09:01.167Z,76931.34
2019-04-22T21:11:29.673Z,76932.08
2019-04-22T21:14:01.367Z,76933.70
2019-04-22T21:16:32.840Z,76925.52
2019-04-22T21:19:03.815Z,76923.59
2019-04-22T21:21:38.634Z,76916.32
2019-04-22T21:24:00.752Z,76910.52
2019-04-22T21:26:33.635Z,76902.16
2019-04-22T21:29:09.878Z,76897.80
2019-04-22T21:31:43.772Z,76892.92
2019-04-22T21:34:10.031Z,76887.97
2019-04-22T21:36:47.875Z,76882.17
2019-04-22T21:39:15.696Z,76881.77
2019-04-22T21:41:49.968Z,76875.91
2019-04-22T21:44:14.074Z,76873.99
2019-04-22T21:46:51.009Z,76861.56
2019-04-22T21:49:21.680Z,76853.88
2019-04-22T21:51:53.775Z,76850.52
2019-04-22T21:54:26.680Z,76845.54
2019-04-22T21:57:07.480Z,76849.20
2019-04-22T21:59:27.063Z,76846.68
2019-04-22T22:02:04.381Z,76840.13
2019-04-22T22:04:30.344Z,76845.33
2019-04-22T22:06:53.111Z,76833.91
2019-04-22T22:09:34.630Z,76829.18
2019-04-22T22:12:02.441Z,76811.83
2019-04-22T22:14:35.853Z,76788.39
2019-04-22T22:17:02.275Z,76779.92
2019-04-22T22:19:39.440Z,76787.48
2019-04-22T22:22:25.444Z,76783.16
2019-04-22T22:24:43.892Z,76777.04
2019-04-22T22:27:14.370Z,76771.53
2019-04-22T22:30:05.653Z,76767.31
2019-04-22T22:32:22.029Z,76771.61
2019-04-22T22:34:45.901Z,76787.91
2019-04-22T22:37:08.521Z,76784.98
2019-04-22T22:39:39.251Z,76787.80
2019-04-22T22:41:59.637Z,76780.77
2019-04-22T22:44:36.017Z,76771.01
2019-04-22T22:47:20.868Z,76754.29
2019-04-22T22:49:53.583Z,76746.97
2019-04-22T22:52:45.044Z,76748.46
2019-04-22T22:54:57.595Z,76737.70
2019-04-22T22:57:35.173Z,76735.88
2019-04-22T22:59:57.774Z,76734.63
2019-04-22T23:02:34.860Z,76729.17
2019-04-22T23:05:05.862Z,76718.97
2019-04-22T23:07:37.426Z,76711.78
2019-04-22T23:10:02.007Z,76713.63
2019-04-22T23:12:44.048Z,76704.55
2019-04-22T23:15:04.701Z,76706.76
2019-04-22T23:17:22.568Z,76711.27
2019-04-22T23:19:51.839Z,76710.65
2019-04-22T23:22:28.376Z,76707.98
2019-04-22T23:25:20.594Z,76710.61
2019-04-22T23:27:49.164Z,76702.48
2019-04-22T23:30:19.742Z,76699.23
2019-04-22T23:33:01.942Z,76705.30
2019-04-22T23:35:36.737Z,76707.98
2019-04-22T23:38:13.698Z,76699.66
2019-04-22T23:40:42.789Z,76692.38
2019-04-22T23:43:23.687Z,76689.98
2019-04-22T23:46:02.309Z,76693.57
2019-04-22T23:48:29.032Z,76686.35
2019-04-22T23:51:08.672Z,76696.48
2019-04-22T23:53:58.216Z,76690.92
2019-04-22T23:56:07.920Z,76679.51
